Time;durP1;ratioP1;P1;durP2;ratioP2;P2;SDS_P1;SDS_P2;PMS_P1;PMS_P2;Temp;Humidity;BMP_temperature;BMP_pressure;BME280_temperature;BME280_humidity;BME280_pressure;Samples;Min_cycle;Max_cycle;Signal;HPM_P1;HPM_P2
2021/03/19 00:05:39;;;;;;;;;;;;;;;;;;;;;
2021/03/19 02:01:43;;;;;;;18.83;2.70;;;4.50;99.90;;;;;;4138493;28;20324;-92
2021/03/19 02:04:21;;;;;;;12.50;2.20;;;4.60;99.90;;;;;;4118887;28;20177;-93
2021/03/19 02:07:00;;;;;;;10.43;2.17;;;4.60;99.90;;;;;;4103059;29;20183;-92
2021/03/19 02:09:38;;;;;;;12.13;2.60;;;4.60;99.90;;;;;;4102876;29;20175;-92
2021/03/19 02:12:16;;;;;;;8.63;2.07;;;4.60;99.90;;;;;;4103033;29;20182;-93
2021/03/19 02:14:54;;;;;;;8.77;2.03;;;4.60;99.90;;;;;;4103021;29;20600;-94
2021/03/19 02:17:32;;;;;;;10.63;2.13;;;4.60;99.90;;;;;;4102785;29;20183;-94
2021/03/19 02:20:11;;;;;;;10.53;2.73;;;4.60;99.90;;;;;;4102752;29;20199;-92
2021/03/19 02:22:49;;;;;;;12.67;2.47;;;4.50;99.90;;;;;;4118961;28;20178;-92
2021/03/19 02:25:27;;;;;;;13.47;2.67;;;4.50;99.90;;;;;;4102636;29;20269;-94
2021/03/19 02:28:05;;;;;;;9.90;2.40;;;4.40;99.90;;;;;;4102894;29;20642;-92
2021/03/19 02:30:43;;;;;;;10.53;2.57;;;4.30;99.90;;;;;;4102810;29;20245;-92
2021/03/19 02:32:44;;;;;;;14.00;2.70;;;4.40;99.90;;;;;;4102659;29;20183;-92
2021/03/19 02:35:08;;;;;;;7.47;2.50;;;4.40;99.90;;;;;;4102603;29;20632;-93
2021/03/19 02:37:12;;;;;;;15.57;2.83;;;4.30;99.90;;;;;;4102823;29;20175;-91
2021/03/19 02:39:12;;;;;;;13.17;2.73;;;4.30;99.90;;;;;;4118563;28;20178;-93
2021/03/19 02:41:13;;;;;;;10.90;2.70;;;4.30;99.90;;;;;;4118498;28;20170;-95
2021/03/19 02:43:15;;;;;;;15.70;2.90;;;4.30;99.90;;;;;;4102580;29;20179;-91
2021/03/19 02:45:20;;;;;;;14.63;2.87;;;4.30;99.90;;;;;;4118445;28;20346;-92
2021/03/19 02:47:21;;;;;;;9.63;2.80;;;4.20;99.90;;;;;;4102483;29;20175;-92
2021/03/19 02:49:22;;;;;;;10.97;3.10;;;4.20;99.90;;;;;;4102298;29;20285;-92
2021/03/19 02:51:24;;;;;;;16.50;2.87;;;4.20;99.90;;;;;;4118362;28;20166;-92
2021/03/19 02:53:27;;;;;;;18.20;3.70;;;4.20;99.90;;;;;;4102656;29;20185;-92
2021/03/19 02:55:29;;;;;;;13.00;3.40;;;4.20;99.90;;;;;;4101557;28;20179;-94
2021/03/19 02:57:29;;;;;;;11.40;2.77;;;4.20;99.90;;;;;;4101942;29;20638;-93
2021/03/19 02:59:30;;;;;;;12.30;2.97;;;4.20;99.90;;;;;;4101953;28;20194;-93
2021/03/19 03:01:31;;;;;;;12.40;3.13;;;4.20;99.90;;;;;;4102290;29;20657;-92
2021/03/19 03:03:33;;;;;;;17.07;3.10;;;4.20;99.90;;;;;;4102195;29;20183;-94
2021/03/19 03:05:34;;;;;;;12.00;3.23;;;4.20;99.90;;;;;;4102126;29;20217;-94
2021/03/19 03:07:36;;;;;;;9.17;3.77;;;4.20;99.90;;;;;;4102360;29;20182;-93
2021/03/19 03:09:37;;;;;;;10.30;2.80;;;4.20;99.90;;;;;;4102164;29;20198;-95
2021/03/19 03:11:39;;;;;;;10.83;3.40;;;4.20;99.90;;;;;;4102030;29;20178;-95
2021/03/19 03:13:39;;;;;;;14.43;3.70;;;4.20;99.90;;;;;;4102167;29;20170;-93
2021/03/19 03:15:41;;;;;;;17.57;3.67;;;4.20;99.90;;;;;;4117971;28;20206;-95
2021/03/19 03:17:43;;;;;;;13.50;3.33;;;4.30;99.90;;;;;;4102095;29;20266;-94
2021/03/19 03:19:44;;;;;;;11.43;3.57;;;4.20;99.90;;;;;;4101885;29;20195;-91
2021/03/19 03:21:45;;;;;;;11.67;4.07;;;4.20;99.90;;;;;;4102124;29;20650;-91
2021/03/19 03:23:46;;;;;;;12.43;4.07;;;4.20;99.90;;;;;;4102041;29;20233;-92
2021/03/19 03:25:47;;;;;;;14.13;4.40;;;4.10;99.90;;;;;;4101777;29;20610;-96
2021/03/19 03:27:48;;;;;;;15.40;4.57;;;4.10;99.90;;;;;;4101955;29;20175;-93
2021/03/19 03:29:48;;;;;;;15.37;4.00;;;4.10;99.90;;;;;;4101957;29;20222;-92
2021/03/19 03:31:49;;;;;;;9.80;4.43;;;4.10;99.90;;;;;;4117717;28;20287;-92
2021/03/19 03:33:50;;;;;;;13.37;4.13;;;4.10;99.90;;;;;;4101983;29;20718;-92
2021/03/19 03:35:51;;;;;;;17.60;4.73;;;4.10;99.90;;;;;;4117487;28;20170;-92
2021/03/19 03:37:53;;;;;;;12.63;4.40;;;4.10;99.90;;;;;;4101736;29;20163;-93
2021/03/19 03:39:54;;;;;;;15.70;4.77;;;4.00;99.90;;;;;;4117470;28;20201;-93
2021/03/19 03:41:56;;;;;;;12.63;4.47;;;4.00;99.90;;;;;;4101819;29;20601;-93
2021/03/19 03:43:57;;;;;;;11.23;4.57;;;4.00;99.90;;;;;;4101820;29;20242;-92
2021/03/19 03:45:58;;;;;;;16.67;4.93;;;4.00;99.90;;;;;;4117558;28;20638;-92
2021/03/19 03:47:59;;;;;;;11.80;5.53;;;3.90;99.90;;;;;;4102001;29;20321;-91
2021/03/19 03:50:00;;;;;;;13.70;5.17;;;3.90;99.90;;;;;;4101964;29;20289;-92
2021/03/19 03:52:01;;;;;;;11.97;5.47;;;3.80;99.90;;;;;;4101622;29;20223;-93
2021/03/19 03:54:02;;;;;;;14.27;5.57;;;3.70;99.90;;;;;;4101786;29;20179;-95
2021/03/19 03:56:05;;;;;;;11.37;5.27;;;3.70;99.90;;;;;;4101599;29;20182;-94
2021/03/19 03:58:07;;;;;;;11.30;5.70;;;3.70;99.90;;;;;;4117465;28;20281;-92
2021/03/19 04:00:11;;;;;;;11.50;6.07;;;3.60;99.90;;;;;;4101615;29;20230;-92
2021/03/19 04:02:26;;;;;;;13.77;5.83;;;3.60;99.90;;;;;;4101873;29;20608;-92
2021/03/19 04:04:26;;;;;;;15.53;5.63;;;3.60;99.90;;;;;;4101346;29;20210;-93
2021/03/19 04:06:27;;;;;;;10.83;6.17;;;3.60;99.90;;;;;;4101469;29;20171;-93
2021/03/19 04:08:29;;;;;;;15.50;6.00;;;3.60;99.90;;;;;;4101021;29;20181;-94
2021/03/19 04:10:30;;;;;;;12.50;6.57;;;3.60;99.90;;;;;;4117145;28;20670;-93
2021/03/19 04:12:31;;;;;;;12.53;6.17;;;3.50;99.90;;;;;;4101182;29;20181;-94
2021/03/19 04:14:32;;;;;;;18.43;6.30;;;3.50;99.90;;;;;;4101051;29;20258;-93
2021/03/19 04:16:33;;;;;;;9.90;6.20;;;3.50;99.90;;;;;;4101005;29;20179;-92
2021/03/19 04:18:34;;;;;;;16.40;7.00;;;3.50;99.90;;;;;;4101008;29;20225;-92
2021/03/19 04:20:38;;;;;;;14.47;6.70;;;3.50;99.90;;;;;;4117002;28;20662;-92
2021/03/19 04:22:39;;;;;;;12.60;6.67;;;3.40;99.90;;;;;;4101071;29;20174;-92
2021/03/19 04:24:40;;;;;;;14.37;6.63;;;3.40;99.90;;;;;;4100876;29;20210;-94
2021/03/19 04:26:40;;;;;;;12.90;6.97;;;3.40;99.90;;;;;;4117116;23;20248;-91
2021/03/19 04:28:41;;;;;;;13.30;6.47;;;3.30;99.90;;;;;;4101174;29;20228;-92
2021/03/19 04:30:43;;;;;;;14.33;6.83;;;3.40;99.90;;;;;;4073373;29;20199;-92
2021/03/19 04:32:44;;;;;;;14.33;6.90;;;3.30;99.90;;;;;;4085096;29;20183;-91
2021/03/19 04:34:45;;;;;;;16.73;7.23;;;3.30;99.90;;;;;;4085184;29;20179;-91
2021/03/19 04:36:49;;;;;;;13.00;6.90;;;3.30;99.90;;;;;;4069417;29;20266;-90
2021/03/19 04:38:51;;;;;;;18.93;7.77;;;3.30;99.90;;;;;;4085094;29;20175;-90
2021/03/19 04:40:52;;;;;;;14.97;6.97;;;3.30;99.90;;;;;;4100975;28;20199;-91
2021/03/19 04:42:54;;;;;;;19.50;7.33;;;3.30;99.90;;;;;;4069382;29;20180;-90
2021/03/19 04:44:54;;;;;;;13.97;7.33;;;3.20;99.90;;;;;;4084911;29;20716;-91
2021/03/19 04:46:55;;;;;;;12.10;6.90;;;3.20;99.90;;;;;;4085010;29;20207;-92
2021/03/19 04:48:56;;;;;;;16.97;7.33;;;3.20;99.90;;;;;;4069213;29;20625;-90
2021/03/19 04:50:57;;;;;;;16.00;7.57;;;3.20;99.90;;;;;;4084815;29;20253;-90
2021/03/19 04:52:58;;;;;;;16.77;7.70;;;3.10;99.90;;;;;;4069214;29;20180;-91
2021/03/19 04:55:01;;;;;;;15.80;7.60;;;3.10;99.90;;;;;;4069186;29;20711;-93
2021/03/19 04:57:03;;;;;;;16.07;7.43;;;3.10;99.90;;;;;;4084919;29;20184;-92
2021/03/19 04:59:05;;;;;;;13.97;8.40;;;3.10;99.90;;;;;;4084793;29;20187;-93
2021/03/19 05:01:05;;;;;;;17.70;8.13;;;3.10;99.90;;;;;;4100699;29;20219;-92
2021/03/19 05:03:06;;;;;;;21.90;9.73;;;3.00;99.90;;;;;;4069031;29;20758;-91
2021/03/19 05:05:20;;;;;;;17.37;7.93;;;3.00;99.90;;;;;;4069270;29;20577;-91
2021/03/19 05:07:21;;;;;;;16.67;9.43;;;3.00;99.90;;;;;;4100742;29;20178;-90
2021/03/19 05:09:22;;;;;;;20.00;10.33;;;3.00;99.90;;;;;;4084652;29;20678;-90
2021/03/19 05:11:22;;;;;;;17.17;8.80;;;2.90;99.90;;;;;;4069008;29;20629;-91
2021/03/19 05:13:23;;;;;;;19.07;10.17;;;2.90;99.90;;;;;;4068941;29;20207;-90
2021/03/19 05:15:26;;;;;;;15.77;9.63;;;2.90;99.90;;;;;;4068812;29;20616;-90
2021/03/19 05:17:30;;;;;;;19.63;10.07;;;2.90;99.90;;;;;;4100409;29;20187;-90
2021/03/19 05:19:30;;;;;;;19.67;9.77;;;2.80;99.90;;;;;;4083833;29;20171;-91
2021/03/19 05:21:31;;;;;;;16.77;9.93;;;2.90;99.90;;;;;;4068953;29;20164;-93
2021/03/19 05:23:36;;;;;;;16.83;10.10;;;2.90;99.90;;;;;;4068954;29;20187;-91
2021/03/19 05:25:37;;;;;;;19.73;11.17;;;2.80;99.90;;;;;;4084397;29;20275;-91
2021/03/19 05:27:39;;;;;;;19.37;10.73;;;2.90;99.90;;;;;;4100265;29;20690;-91
2021/03/19 05:29:39;;;;;;;21.70;10.80;;;2.80;99.90;;;;;;4084422;29;20199;-91
2021/03/19 05:31:41;;;;;;;19.03;11.37;;;2.80;99.90;;;;;;4100255;29;20197;-91
2021/03/19 05:33:46;;;;;;;22.33;11.20;;;2.80;99.90;;;;;;4084660;29;20603;-91
2021/03/19 05:35:47;;;;;;;18.53;11.33;;;2.80;99.90;;;;;;4068754;29;20199;-92
2021/03/19 05:37:49;;;;;;;23.67;12.37;;;2.80;99.90;;;;;;4084345;29;20168;-91
2021/03/19 05:39:50;;;;;;;21.27;11.80;;;2.80;99.90;;;;;;4084344;29;20199;-91
2021/03/19 05:41:51;;;;;;;21.37;12.53;;;2.80;99.90;;;;;;4068727;29;20267;-91
2021/03/19 05:44:14;;;;;;;21.40;13.03;;;2.70;99.90;;;;;;4084487;29;20214;-91
2021/03/19 05:46:17;;;;;;;20.33;11.93;;;2.70;99.90;;;;;;4084427;29;20186;-92
2021/03/19 05:48:19;;;;;;;19.90;11.40;;;2.70;99.90;;;;;;4100210;29;20174;-91
2021/03/19 05:50:34;;;;;;;24.87;11.87;;;2.70;99.90;;;;;;4068734;29;20204;-91
2021/03/19 05:52:35;;;;;;;21.00;12.57;;;2.70;99.90;;;;;;4069104;29;20231;-90
2021/03/19 05:54:37;;;;;;;23.70;13.40;;;2.70;99.90;;;;;;4084329;29;20180;-90
2021/03/19 05:56:39;;;;;;;23.70;12.60;;;2.70;99.90;;;;;;4100131;28;20194;-90
2021/03/19 05:58:41;;;;;;;26.30;13.87;;;2.70;99.90;;;;;;4100263;29;20175;-91
2021/03/19 06:00:42;;;;;;;25.47;13.30;;;2.70;99.90;;;;;;4084311;29;20567;-90
2021/03/19 06:02:42;;;;;;;23.47;13.87;;;2.70;99.90;;;;;;4084400;29;20211;-91
2021/03/19 06:04:43;;;;;;;23.33;14.83;;;2.70;99.90;;;;;;4084550;29;20207;-90
2021/03/19 06:06:56;;;;;;;21.67;13.63;;;2.70;99.90;;;;;;4100119;29;20182;-89
2021/03/19 06:08:56;;;;;;;21.37;13.37;;;2.70;99.90;;;;;;4084324;29;20283;-91
2021/03/19 06:11:21;;;;;;;25.00;14.00;;;2.60;99.90;;;;;;4100062;28;20262;-91
2021/03/19 06:13:30;;;;;;;22.00;13.50;;;2.70;99.90;;;;;;4057693;29;20192;-90
2021/03/19 06:15:33;;;;;;;24.00;14.10;;;2.70;99.90;;;;;;4100160;29;20258;-91
2021/03/19 06:17:43;;;;;;;25.03;14.73;;;2.60;99.90;;;;;;4099948;29;20531;-91
2021/03/19 06:19:53;;;;;;;20.93;13.00;;;2.60;99.90;;;;;;4100045;28;20199;-91
2021/03/19 06:22:19;;;;;;;22.67;14.63;;;2.60;99.90;;;;;;4069080;29;20573;-91
2021/03/19 06:24:27;;;;;;;21.67;13.30;;;2.70;99.90;;;;;;4068521;29;20212;-91
2021/03/19 06:26:32;;;;;;;22.07;13.27;;;2.70;99.90;;;;;;4084182;29;20190;-89
2021/03/19 06:28:40;;;;;;;21.47;14.80;;;2.80;99.90;;;;;;4084184;29;20223;-91
2021/03/19 06:30:43;;;;;;;40.67;14.00;;;2.80;99.90;;;;;;4085362;29;20206;-91
2021/03/19 06:33:18;;;;;;;18.43;11.50;;;2.70;99.90;;;;;;4087012;29;20183;-90
2021/03/19 06:35:29;;;;;;;18.53;11.90;;;2.70;99.90;;;;;;4070857;29;20695;-91
2021/03/19 06:37:34;;;;;;;21.53;12.67;;;2.80;99.90;;;;;;4071477;29;20168;-91
2021/03/19 06:39:47;;;;;;;20.97;12.97;;;2.80;99.90;;;;;;4086735;29;20200;-91
2021/03/19 06:42:10;;;;;;;21.00;12.67;;;2.80;99.90;;;;;;4086947;29;20175;-90
2021/03/19 06:44:17;;;;;;;16.57;10.10;;;2.80;99.90;;;;;;4086941;29;20219;-89
2021/03/19 06:46:35;;;;;;;23.00;11.87;;;2.90;99.90;;;;;;4102790;29;20173;-90
2021/03/19 06:48:41;;;;;;;16.37;10.83;;;2.90;99.90;;;;;;4086833;29;20206;-90
2021/03/19 06:50:42;;;;;;;21.73;10.93;;;2.90;99.90;;;;;;4102551;28;20241;-90
2021/03/19 06:52:42;;;;;;;18.87;11.57;;;3.00;99.90;;;;;;4086755;29;20184;-90
2021/03/19 06:54:56;;;;;;;22.43;10.93;;;3.00;99.90;;;;;;4086670;29;20168;-90
2021/03/19 06:57:12;;;;;;;18.93;10.40;;;3.10;99.90;;;;;;4102654;29;20179;-91
2021/03/19 06:59:24;;;;;;;14.30;8.97;;;3.20;99.90;;;;;;4070912;29;20172;-89
2021/03/19 07:01:31;;;;;;;12.27;7.40;;;3.60;99.90;;;;;;4102480;29;20170;-90
2021/03/19 07:03:44;;;;;;;10.87;7.00;;;4.10;99.90;;;;;;4086649;29;20709;-91
2021/03/19 07:06:03;;;;;;;13.23;6.97;;;4.70;99.90;;;;;;4102283;29;20206;-92
2021/03/19 07:08:35;;;;;;;12.37;7.17;;;5.20;99.90;;;;;;4086538;29;20172;-90
2021/03/19 07:10:45;;;;;;;11.47;7.03;;;5.50;99.90;;;;;;4078652;29;20214;-90
2021/03/19 07:12:53;;;;;;;10.60;6.93;;;5.80;99.90;;;;;;4086772;29;20184;-90
2021/03/19 07:15:17;;;;;;;10.40;6.40;;;6.00;99.90;;;;;;4086442;29;20213;-90
2021/03/19 07:17:37;;;;;;;10.30;6.47;;;5.90;99.90;;;;;;4070553;29;20640;-91
2021/03/19 07:19:52;;;;;;;11.83;6.30;;;5.90;99.90;;;;;;4087013;29;20679;-89
2021/03/19 07:22:18;;;;;;;13.33;6.03;;;6.00;99.90;;;;;;4086306;29;20647;-91
2021/03/19 07:24:42;;;;;;;9.03;5.77;;;6.20;99.90;;;;;;4086241;29;20215;-91
2021/03/19 07:26:59;;;;;;;11.67;6.20;;;6.20;99.90;;;;;;4086111;29;20187;-90
2021/03/19 07:29:25;;;;;;;12.73;6.20;;;6.10;99.90;;;;;;4102031;29;20190;-90
2021/03/19 07:31:41;;;;;;;18.67;5.23;;;6.20;99.90;;;;;;4086351;29;20179;-91
2021/03/19 07:34:10;;;;;;;9.83;5.80;;;6.30;99.90;;;;;;4070625;29;20188;-91
2021/03/19 07:36:22;;;;;;;11.37;5.07;;;6.30;99.90;;;;;;4086131;29;20187;-91
2021/03/19 07:38:47;;;;;;;8.10;5.10;;;6.40;99.90;;;;;;4101974;29;20179;-91
2021/03/19 07:41:26;;;;;;;7.50;4.70;;;6.50;99.90;;;;;;4101750;28;20567;-90
2021/03/19 07:43:42;;;;;;;12.00;5.10;;;6.40;99.90;;;;;;4066134;29;20247;-91
2021/03/19 07:46:14;;;;;;;8.83;4.57;;;6.30;99.90;;;;;;4101733;29;20230;-90
2021/03/19 07:48:23;;;;;;;9.13;5.20;;;6.60;99.90;;;;;;4086044;29;20287;-90
2021/03/19 07:51:02;;;;;;;10.83;5.27;;;6.90;99.90;;;;;;4085697;29;20195;-90
2021/03/19 07:53:21;;;;;;;10.77;5.17;;;7.00;99.90;;;;;;4085979;29;20528;-91
2021/03/19 07:55:29;;;;;;;6.80;3.70;;;7.10;99.90;;;;;;4070322;29;20180;-91
2021/03/19 07:57:59;;;;;;;10.90;4.70;;;7.10;99.90;;;;;;4085963;29;20651;-90
2021/03/19 08:00:06;;;;;;;8.47;4.47;;;7.30;99.90;;;;;;4101668;28;20579;-90
2021/03/19 08:02:12;;;;;;;10.77;4.33;;;7.60;99.90;;;;;;4085888;29;20179;-90
2021/03/19 08:04:17;;;;;;;7.87;3.53;;;7.70;99.90;;;;;;4101616;29;20765;-91
2021/03/19 08:06:21;;;;;;;10.10;3.97;;;7.70;99.90;;;;;;4085602;29;20255;-90
2021/03/19 08:08:45;;;;;;;7.87;4.23;;;7.40;99.90;;;;;;4070389;29;20215;-90
2021/03/19 08:11:11;;;;;;;6.43;3.80;;;7.20;99.90;;;;;;4086874;29;20199;-91
2021/03/19 08:13:39;;;;;;;9.83;3.50;;;7.50;99.90;;;;;;4096191;29;20172;-89
2021/03/19 08:16:08;;;;;;;6.43;3.40;;;7.90;99.90;;;;;;4072555;29;20675;-90
2021/03/19 08:18:15;;;;;;;7.37;3.80;;;8.00;99.90;;;;;;4085956;29;20183;-90
2021/03/19 08:20:16;;;;;;;7.77;3.70;;;7.90;99.90;;;;;;4085675;29;20671;-91
2021/03/19 08:22:48;;;;;;;6.83;3.17;;;7.50;99.90;;;;;;4101313;29;20162;-92
2021/03/19 08:25:13;;;;;;;5.00;3.10;;;7.30;99.90;;;;;;4084108;29;20219;-91
2021/03/19 08:27:39;;;;;;;7.00;2.40;;;7.50;99.90;;;;;;4069491;29;20611;-91
2021/03/19 08:30:09;;;;;;;6.10;3.00;;;7.30;99.90;;;;;;4086571;29;20205;-91
2021/03/19 08:32:47;;;;;;;4.70;2.67;;;7.50;99.90;;;;;;4102342;29;20186;-92
2021/03/19 08:35:10;;;;;;;6.70;3.13;;;7.70;99.90;;;;;;4085232;29;20287;-93
2021/03/19 08:37:34;;;;;;;8.73;3.00;;;7.90;99.90;;;;;;4069700;29;20271;-93
2021/03/19 08:39:41;;;;;;;7.60;3.10;;;7.70;99.90;;;;;;4069495;29;20211;-92
2021/03/19 08:41:47;;;;;;;5.30;2.50;;;7.50;99.90;;;;;;4085116;29;20181;-92
2021/03/19 08:43:55;;;;;;;8.20;3.13;;;7.60;99.90;;;;;;4085211;29;20210;-93
2021/03/19 08:46:03;;;;;;;6.53;2.67;;;7.80;99.90;;;;;;4085304;29;20246;-92
2021/03/19 08:48:13;;;;;;;5.03;2.43;;;7.90;99.90;;;;;;4084962;29;20181;-92
2021/03/19 08:50:28;;;;;;;4.60;2.47;;;8.10;99.90;;;;;;4085224;29;20207;-93
2021/03/19 08:52:38;;;;;;;5.83;2.50;;;7.80;99.90;;;;;;4085479;29;20175;-93
2021/03/19 08:54:40;;;;;;;7.50;2.80;;;8.20;99.90;;;;;;4085557;29;20640;-92
2021/03/19 08:56:48;;;;;;;4.60;2.30;;;8.70;99.90;;;;;;4101049;28;20185;-93
2021/03/19 08:58:53;;;;;;;5.77;2.57;;;8.90;99.90;;;;;;4085321;29;20227;-91
2021/03/19 09:01:33;;;;;;;3.80;2.10;;;8.80;99.90;;;;;;4085299;29;20199;-91
2021/03/19 09:03:37;;;;;;;11.17;2.47;;;8.60;99.90;;;;;;4100721;29;20186;-95
2021/03/19 09:06:04;;;;;;;6.73;2.57;;;8.20;99.90;;;;;;4085347;29;20211;-93
2021/03/19 09:08:12;;;;;;;3.90;2.57;;;8.30;99.90;;;;;;4069422;29;20184;-91
2021/03/19 09:10:16;;;;;;;7.10;2.13;;;8.30;99.90;;;;;;4100963;28;20198;-91
2021/03/19 09:12:20;;;;;;;7.00;2.37;;;8.30;99.90;;;;;;4085116;29;20258;-91
2021/03/19 09:14:31;;;;;;;5.43;2.40;;;8.30;99.90;;;;;;4100975;29;20163;-92
2021/03/19 09:16:44;;;;;;;5.00;1.90;;;8.10;99.90;;;;;;4084942;29;20215;-91
2021/03/19 09:18:49;;;;;;;4.77;2.00;;;7.90;99.90;;;;;;4085252;29;20171;-92
2021/03/19 09:21:05;;;;;;;3.97;1.70;;;7.80;99.90;;;;;;4084862;29;20296;-91
2021/03/19 09:23:09;;;;;;;7.20;2.07;;;7.70;99.90;;;;;;4085045;29;20186;-91
2021/03/19 09:25:13;;;;;;;4.47;2.30;;;7.70;99.90;;;;;;4082894;29;20215;-90
2021/03/19 09:27:25;;;;;;;4.00;2.03;;;7.50;99.90;;;;;;4084510;29;20238;-90
2021/03/19 09:29:36;;;;;;;6.00;2.00;;;7.60;99.90;;;;;;4084780;29;20555;-92
2021/03/19 09:31:50;;;;;;;5.73;1.53;;;7.90;99.90;;;;;;4069286;29;20271;-91
2021/03/19 09:33:50;;;;;;;3.37;2.03;;;7.90;99.90;;;;;;4069166;29;20168;-93
2021/03/19 09:35:51;;;;;;;2.47;1.60;;;7.70;99.90;;;;;;4068799;29;20176;-93
2021/03/19 09:37:53;;;;;;;5.70;1.80;;;7.70;99.90;;;;;;4069062;29;20164;-91
2021/03/19 09:39:59;;;;;;;6.23;2.10;;;7.90;99.90;;;;;;4076463;29;20290;-92
2021/03/19 09:42:00;;;;;;;3.53;1.43;;;7.90;99.90;;;;;;4094581;29;20195;-91
2021/03/19 09:44:13;;;;;;;3.77;2.00;;;8.30;99.90;;;;;;4076613;29;20176;-92
2021/03/19 09:46:24;;;;;;;3.67;1.97;;;8.20;99.90;;;;;;4080838;29;20183;-91
2021/03/19 09:48:27;;;;;;;5.03;2.23;;;8.20;99.90;;;;;;4076509;29;20175;-91
2021/03/19 09:50:34;;;;;;;3.80;2.00;;;8.30;99.90;;;;;;4092282;28;20195;-91
2021/03/19 09:52:37;;;;;;;4.87;2.00;;;8.40;99.90;;;;;;4107107;28;20164;-92
2021/03/19 09:54:39;;;;;;;4.33;1.90;;;8.40;99.90;;;;;;4084541;29;20223;-91
2021/03/19 09:56:40;;;;;;;10.83;2.70;;;8.30;99.90;;;;;;4063782;29;20245;-92
2021/03/19 09:58:57;;;;;;;5.70;1.80;;;8.40;99.90;;;;;;4086995;29;20188;-92
2021/03/19 10:01:10;;;;;;;3.60;1.80;;;8.80;99.90;;;;;;4104623;28;20194;-92
2021/03/19 10:03:12;;;;;;;5.63;2.30;;;9.00;99.90;;;;;;4073277;29;20614;-91
2021/03/19 10:05:24;;;;;;;4.07;2.43;;;8.60;99.90;;;;;;4103101;28;20202;-90
2021/03/19 10:07:26;;;;;;;4.20;2.00;;;7.80;99.90;;;;;;4087799;29;20617;-91
2021/03/19 10:09:38;;;;;;;4.70;1.93;;;7.50;99.90;;;;;;4103224;29;20178;-91
2021/03/19 10:11:56;;;;;;;5.63;1.80;;;7.30;99.90;;;;;;4103376;29;20167;-93
2021/03/19 10:14:26;;;;;;;8.73;1.90;;;7.10;99.90;;;;;;4087462;29;20183;-91
2021/03/19 10:16:26;;;;;;;4.30;1.50;;;7.20;99.90;;;;;;4103275;29;20222;-92
2021/03/19 10:18:38;;;;;;;3.00;1.50;;;7.10;99.90;;;;;;4087749;29;20179;-93
2021/03/19 10:20:42;;;;;;;6.80;1.63;;;6.90;99.90;;;;;;4103222;28;20195;-91
2021/03/19 10:22:49;;;;;;;4.10;1.80;;;7.10;99.90;;;;;;4087386;29;20176;-90
2021/03/19 10:24:49;;;;;;;5.47;1.77;;;7.30;99.90;;;;;;4103037;29;20199;-91
2021/03/19 10:26:56;;;;;;;4.20;1.60;;;7.50;99.90;;;;;;4083541;29;20179;-91
2021/03/19 10:29:32;;;;;;;2.63;1.20;;;7.50;99.90;;;;;;4071857;29;20228;-92
2021/03/19 10:31:39;;;;;;;2.93;1.43;;;7.30;99.90;;;;;;4087307;29;20174;-91
2021/03/19 10:33:47;;;;;;;2.93;1.67;;;7.40;99.90;;;;;;4055757;29;20260;-92
2021/03/19 10:36:04;;;;;;;3.17;1.50;;;7.40;99.90;;;;;;4055775;29;20652;-90
2021/03/19 10:38:32;;;;;;;3.13;1.67;;;7.50;99.90;;;;;;4071426;29;20325;-91
2021/03/19 10:40:36;;;;;;;2.27;1.20;;;7.40;99.90;;;;;;4073599;29;20559;-91
2021/03/19 10:42:47;;;;;;;1.57;0.97;;;7.50;99.90;;;;;;4075231;29;20232;-90
2021/03/19 10:45:15;;;;;;;2.10;1.20;;;7.60;99.90;;;;;;4082602;29;20196;-91
2021/03/19 10:47:41;;;;;;;2.90;1.10;;;7.80;99.90;;;;;;4075288;29;20263;-91
2021/03/19 10:49:54;;;;;;;3.83;1.37;;;7.80;99.90;;;;;;4073000;29;20211;-90
2021/03/19 10:52:02;;;;;;;3.60;1.30;;;7.60;99.90;;;;;;4087639;29;20214;-91
2021/03/19 10:54:23;;;;;;;1.43;1.00;;;7.50;99.90;;;;;;4087477;29;20175;-92
2021/03/19 10:58:49;;;;;;;3.20;1.47;;;7.30;99.90;;;;;;4134939;28;20669;-93
2021/03/19 11:00:52;;;;;;;2.53;1.30;;;7.30;99.90;;;;;;4102668;28;20220;-94
2021/03/19 11:02:58;;;;;;;5.30;1.80;;;7.50;99.90;;;;;;4103498;29;20167;-96
2021/03/19 11:04:59;;;;;;;1.70;0.90;;;7.60;99.90;;;;;;4119032;28;20220;-94
2021/03/19 11:07:25;;;;;;;6.53;1.53;;;7.80;99.90;;;;;;4119193;28;20225;-93
2021/03/19 11:09:28;;;;;;;3.07;2.00;;;8.10;99.90;;;;;;4102708;28;20197;-92
2021/03/19 11:11:31;;;;;;;5.60;1.50;;;8.10;99.90;;;;;;4119333;28;20174;-93
2021/03/19 11:13:35;;;;;;;4.20;1.90;;;7.80;99.90;;;;;;4103119;29;20171;-91
2021/03/19 11:15:42;;;;;;;5.73;1.83;;;7.70;99.90;;;;;;4102082;29;20643;-90
2021/03/19 11:17:43;;;;;;;3.67;2.00;;;7.50;99.90;;;;;;4116945;28;20198;-91
2021/03/19 11:20:04;;;;;;;4.17;1.80;;;7.70;99.90;;;;;;4103805;29;20257;-93
2021/03/19 11:22:07;;;;;;;6.77;1.77;;;7.70;99.90;;;;;;4119585;28;20211;-93
2021/03/19 11:24:36;;;;;;;4.67;2.10;;;7.90;99.90;;;;;;4104035;29;20179;-96
2021/03/19 11:26:37;;;;;;;5.93;2.00;;;8.10;99.90;;;;;;4104961;29;20275;-93
2021/03/19 11:28:41;;;;;;;4.30;1.77;;;8.00;99.90;;;;;;4104067;29;20171;-96
2021/03/19 11:30:42;;;;;;;6.10;2.00;;;8.00;99.90;;;;;;4103879;29;20627;-93
2021/03/19 11:32:42;;;;;;;2.30;1.60;;;8.00;99.90;;;;;;4118878;28;20174;-94
2021/03/19 11:34:48;;;;;;;3.33;1.70;;;8.10;99.90;;;;;;4103519;29;20556;-92
2021/03/19 11:37:01;;;;;;;3.67;1.40;;;8.10;99.90;;;;;;4114150;28;20638;-92
2021/03/19 11:39:13;;;;;;;2.03;1.53;;;8.20;99.90;;;;;;4119890;28;20174;-92
2021/03/19 11:41:34;;;;;;;7.27;1.80;;;8.10;99.90;;;;;;4114572;28;20265;-94
2021/03/19 11:43:37;;;;;;;5.10;1.70;;;8.00;99.90;;;;;;4120948;28;20177;-93
2021/03/19 11:46:01;;;;;;;4.50;1.63;;;8.10;99.90;;;;;;4122969;28;20205;-95
2021/03/19 11:48:22;;;;;;;5.13;1.90;;;8.30;99.90;;;;;;4127240;28;20518;-96
2021/03/19 11:50:24;;;;;;;4.03;2.07;;;8.40;99.90;;;;;;4109242;29;20643;-94
2021/03/19 11:52:24;;;;;;;3.73;1.87;;;8.50;99.90;;;;;;4104856;29;20187;-94
2021/03/19 11:54:25;;;;;;;3.80;1.40;;;8.40;99.90;;;;;;4105957;29;20225;-94
2021/03/19 11:56:28;;;;;;;2.40;1.80;;;8.20;99.90;;;;;;4103908;28;20606;-95
2021/03/19 12:03:42;;;;;;;4.77;1.40;;;8.40;99.90;;;;;;4119162;28;20205;-93
2021/03/19 12:05:43;;;;;;;2.47;1.47;;;8.50;99.90;;;;;;4104918;29;20218;-94
2021/03/19 12:07:44;;;;;;;5.63;1.50;;;8.60;99.90;;;;;;4105580;29;20163;-94
2021/03/19 12:09:48;;;;;;;3.13;1.40;;;8.70;99.90;;;;;;4104141;29;20225;-92
2021/03/19 12:11:49;;;;;;;3.70;1.60;;;8.80;99.90;;;;;;4090731;29;20235;-93
2021/03/19 12:13:52;;;;;;;2.57;1.53;;;8.80;99.90;;;;;;4105750;29;20167;-94
2021/03/19 12:18:19;;;;;;;3.37;1.90;;;9.00;99.90;;;;;;4086725;29;20208;-95
2021/03/19 12:20:20;;;;;;;5.90;1.63;;;8.80;99.90;;;;;;4079897;29;20203;-95
2021/03/19 12:22:43;;;;;;;;;;;;;;;;;;;;;
2021/03/19 12:24:47;;;;;;;3.60;1.63;;;9.20;99.90;;;;;;4107491;29;20293;-94
2021/03/19 12:26:49;;;;;;;4.73;1.70;;;9.00;99.90;;;;;;4105431;29;20233;-94
2021/03/19 12:28:52;;;;;;;2.30;1.50;;;8.60;99.90;;;;;;4089570;29;20591;-94
2021/03/19 12:30:55;;;;;;;4.87;1.67;;;8.60;99.90;;;;;;4108316;29;20285;-95
2021/03/19 12:33:00;;;;;;;2.80;1.73;;;8.70;99.90;;;;;;4062924;29;20189;-94
2021/03/19 12:35:01;;;;;;;9.57;1.83;;;8.90;99.90;;;;;;4096529;29;20272;-93
2021/03/19 12:37:07;;;;;;;2.73;1.53;;;8.90;99.90;;;;;;4093586;29;20176;-94
2021/03/19 12:39:08;;;;;;;3.70;1.93;;;9.00;99.90;;;;;;4095697;29;20187;-95
2021/03/19 12:41:12;;;;;;;2.50;1.40;;;9.20;99.90;;;;;;4092816;29;20346;-95
2021/03/19 12:43:14;;;;;;;2.77;1.60;;;9.30;99.90;;;;;;4078572;29;20171;-93
2021/03/19 12:45:17;;;;;;;3.60;1.50;;;9.20;99.90;;;;;;4099288;29;20219;-90
2021/03/19 12:47:18;;;;;;;5.03;1.93;;;9.20;99.90;;;;;;4091295;29;20191;-92
2021/03/19 12:49:19;;;;;;;5.90;2.20;;;9.10;99.90;;;;;;4085876;29;20269;-96
2021/03/19 12:51:20;;;;;;;3.37;1.80;;;9.10;99.90;;;;;;4085777;29;20303;-92
2021/03/19 12:53:22;;;;;;;3.33;1.53;;;9.10;99.90;;;;;;4086625;29;20184;-94
2021/03/19 12:55:24;;;;;;;2.33;1.33;;;9.20;99.90;;;;;;4101652;29;20239;-94
2021/03/19 12:57:25;;;;;;;3.20;1.20;;;9.00;99.90;;;;;;4087400;29;20194;-95
2021/03/19 12:59:26;;;;;;;3.67;1.80;;;9.20;99.90;;;;;;4105087;29;20186;-94
2021/03/19 13:01:27;;;;;;;2.80;1.73;;;9.10;99.90;;;;;;4086401;29;20175;-93
2021/03/19 13:03:30;;;;;;;6.03;1.70;;;9.10;99.90;;;;;;4084738;29;20193;-93
2021/03/19 13:05:31;;;;;;;7.10;1.90;;;9.10;99.90;;;;;;4103010;29;20561;-94
2021/03/19 13:07:32;;;;;;;3.87;1.70;;;9.30;99.90;;;;;;4102251;29;20202;-95
2021/03/19 13:09:34;;;;;;;10.53;1.43;;;9.50;99.90;;;;;;4087516;29;20270;-93
2021/03/19 13:11:35;;;;;;;2.80;1.20;;;9.50;99.90;;;;;;4070610;29;20196;-93
2021/03/19 13:13:37;;;;;;;4.67;1.40;;;9.60;99.90;;;;;;4072886;29;20180;-95
2021/03/19 13:15:44;;;;;;;6.00;1.40;;;9.40;99.90;;;;;;4074230;29;20181;-95
2021/03/19 13:17:48;;;;;;;3.37;1.53;;;9.40;99.90;;;;;;4072140;29;20227;-94
2021/03/19 13:19:49;;;;;;;2.93;1.70;;;9.40;99.90;;;;;;4085759;29;20655;-94
2021/03/19 13:21:51;;;;;;;2.07;1.23;;;9.40;99.90;;;;;;4074735;29;20164;-95
2021/03/19 13:23:51;;;;;;;9.77;2.07;;;9.40;99.90;;;;;;4075845;29;20187;-94